Time;durP1;ratioP1;P1;durP2;ratioP2;P2;SDS_P1;SDS_P2;PMS_P1;PMS_P2;Temp;Humidity;BMP_temperature;BMP_pressure;BME280_temperature;BME280_humidity;BME280_pressure;Samples;Min_cycle;Max_cycle;Signal;HPM_P1;HPM_P2
2022/04/13 00:00:34;;;;;;;39.60;19.50;;;;;;;3.59;44.27;99625.38;106145;1274;110954;-69
2022/04/13 00:03:07;;;;;;;39.30;19.40;;;;;;;3.58;44.18;99619.80;106110;1274;95741;-70
2022/04/13 00:05:35;;;;;;;37.50;18.60;;;;;;;3.56;44.43;99621.79;106108;1274;107787;-69
2022/04/13 00:08:06;;;;;;;74.20;36.20;;;;;;;3.55;44.30;99621.45;106119;1274;97755;-69
2022/04/13 00:10:37;;;;;;;67.10;35.00;;;;;;;3.52;44.32;99616.31;106003;1274;97847;-71
2022/04/13 00:13:06;;;;;;;50.40;25.10;;;;;;;3.43;44.25;99617.70;106078;1274;111188;-71
2022/04/13 00:15:35;;;;;;;40.90;21.40;;;;;;;3.37;44.26;99621.05;106128;1274;95243;-72
2022/04/13 00:18:08;;;;;;;57.00;29.10;;;;;;;3.32;44.45;99619.65;106122;1274;107738;-73
2022/04/13 00:20:39;;;;;;;54.10;27.60;;;;;;;3.25;44.47;99624.21;106127;1273;96986;-72
2022/04/13 00:23:07;;;;;;;38.70;20.20;;;;;;;3.20;44.45;99620.39;106134;1274;95335;-72
2022/04/13 00:25:38;;;;;;;39.00;18.20;;;;;;;3.17;44.61;99622.41;106132;1273;111205;-72
2022/04/13 00:28:10;;;;;;;39.50;19.50;;;;;;;3.14;44.55;99622.49;106159;1274;97925;-70
2022/04/13 00:30:38;;;;;;;36.80;18.00;;;;;;;3.10;44.28;99621.39;106104;1274;107866;-72
2022/04/13 00:33:08;;;;;;;38.50;18.10;;;;;;;3.05;44.42;99620.84;106166;1274;97966;-70
2022/04/13 00:35:39;;;;;;;40.10;19.70;;;;;;;3.02;44.67;99622.70;106126;1273;97869;-72
2022/04/13 00:38:07;;;;;;;39.20;19.40;;;;;;;2.98;44.65;99621.27;106126;1273;111401;-72
2022/04/13 00:40:42;;;;;;;44.90;21.60;;;;;;;2.91;44.11;99621.67;106117;1274;97866;-73
2022/04/13 00:43:10;;;;;;;41.70;21.80;;;;;;;2.79;44.51;99618.55;106122;1274;107787;-72
2022/04/13 00:45:48;;;;;;;44.10;22.40;;;;;;;2.68;45.45;99622.05;106079;1273;97905;-72
2022/04/13 00:48:32;;;;;;;43.20;22.50;;;;;;;2.52;45.05;99623.05;106102;1274;95370;-71
2022/04/13 00:51:00;;;;;;;33.00;16.70;;;;;;;2.46;45.49;99619.92;106073;1274;111469;-74
2022/04/13 00:53:34;;;;;;;43.60;21.80;;;;;;;2.47;45.19;99621.46;106171;1274;97873;-72
2022/04/13 00:56:08;;;;;;;47.90;23.80;;;;;;;2.49;45.29;99620.35;106119;1274;107733;-72
2022/04/13 00:58:39;;;;;;;47.40;25.60;;;;;;;2.48;45.12;99620.70;106175;1274;97984;-72
2022/04/13 01:01:10;;;;;;;46.60;24.60;;;;;;;2.45;45.55;99618.73;106178;1274;97982;-73
2022/04/13 01:03:39;;;;;;;45.60;24.20;;;;;;;2.37;45.61;99618.63;106080;1274;111543;-72
2022/04/13 01:06:07;;;;;;;46.20;24.30;;;;;;;2.34;45.93;99618.36;106131;1274;97759;-73
2022/04/13 01:08:39;;;;;;;45.40;22.90;;;;;;;2.30;45.82;99613.73;106090;1274;107667;-72
2022/04/13 01:11:07;;;;;;;46.00;24.50;;;;;;;2.29;45.66;99616.92;106058;1274;96422;-72
2022/04/13 01:13:38;;;;;;;51.20;24.90;;;;;;;2.28;46.02;99614.13;106092;1274;97838;-73
2022/04/13 01:16:07;;;;;;;47.30;24.70;;;;;;;2.22;46.04;99611.71;106042;1274;111434;-72
2022/04/13 01:18:37;;;;;;;48.40;25.80;;;;;;;2.19;46.03;99612.52;106155;1274;97911;-72
2022/04/13 01:21:10;;;;;;;46.20;24.70;;;;;;;2.13;46.50;99609.86;106231;1274;107756;-73
2022/04/13 01:23:38;;;;;;;49.90;25.30;;;;;;;2.07;46.34;99608.63;106105;1274;97986;-73
2022/04/13 01:26:10;;;;;;;51.90;26.00;;;;;;;2.03;46.33;99606.81;106148;1274;95962;-73
2022/04/13 01:28:39;;;;;;;50.00;23.90;;;;;;;2.04;46.57;99610.13;106136;1274;110919;-71
2022/04/13 01:31:08;;;;;;;50.70;25.20;;;;;;;2.07;46.48;99603.57;106210;1274;95845;-71
2022/04/13 01:33:41;;;;;;;48.40;24.90;;;;;;;2.08;46.12;99602.66;106195;1274;108486;-72
2022/04/13 01:36:08;;;;;;;45.00;23.80;;;;;;;2.06;46.48;99603.58;106154;1274;98095;-71
2022/04/13 01:38:39;;;;;;;47.20;26.40;;;;;;;2.04;46.33;99599.64;106156;1274;95224;-71
2022/04/13 01:41:14;;;;;;;54.10;25.10;;;;;;;1.99;46.29;99601.01;106204;1274;112107;-73
2022/04/13 01:43:54;;;;;;;51.20;26.60;;;;;;;1.91;46.19;99599.83;106238;1273;96144;-74
2022/04/13 01:46:27;;;;;;;51.00;24.10;;;;;;;1.81;46.60;99600.10;106181;1273;107741;-73
2022/04/13 01:48:55;;;;;;;50.50;25.30;;;;;;;1.72;46.65;99601.92;106146;1274;97940;-72
2022/04/13 01:51:23;;;;;;;48.20;24.40;;;;;;;1.61;46.71;99605.20;106200;1274;97842;-73
2022/04/13 01:53:51;;;;;;;53.50;27.60;;;;;;;1.52;47.29;99609.64;106157;1274;111193;-71
2022/04/13 01:56:19;;;;;;;53.10;27.30;;;;;;;1.35;48.07;99609.92;106123;1274;95930;-73
2022/04/13 01:58:47;;;;;;;52.70;27.70;;;;;;;1.12;48.71;99613.48;106081;1274;107727;-73
2022/04/13 02:01:16;;;;;;;55.50;28.60;;;;;;;0.90;48.95;99612.23;106085;1272;97912;-73
2022/04/13 02:03:50;;;;;;;55.30;27.70;;;;;;;0.74;49.35;99614.37;106116;1274;97851;-73
2022/04/13 02:06:18;;;;;;;47.10;25.20;;;;;;;0.59;49.40;99615.23;106073;1274;111870;-73
2022/04/13 02:08:48;;;;;;;48.30;25.50;;;;;;;0.54;48.94;99617.44;106069;1274;95773;-71
2022/04/13 02:11:18;;;;;;;47.60;23.00;;;;;;;0.56;48.81;99616.71;106069;1272;107485;-74
2022/04/13 02:13:46;;;;;;;45.80;22.00;;;;;;;0.62;48.90;99614.65;106075;1274;95259;-74
2022/04/13 02:16:14;;;;;;;43.50;21.90;;;;;;;0.68;48.74;99614.17;106099;1274;97992;-72
2022/04/13 02:18:45;;;;;;;45.30;21.80;;;;;;;0.77;48.88;99615.20;106048;1274;111342;-72
2022/04/13 02:21:12;;;;;;;41.40;21.50;;;;;;;0.82;48.84;99617.84;106120;1274;97889;-71
2022/04/13 02:23:42;;;;;;;44.60;21.50;;;;;;;0.86;48.59;99618.80;106080;1274;106741;-72
2022/04/13 02:26:15;;;;;;;42.30;22.00;;;;;;;0.88;48.58;99617.20;106214;1274;97979;-72
2022/04/13 02:28:43;;;;;;;40.70;21.70;;;;;;;0.83;49.16;99613.11;106144;1274;98075;-73
2022/04/13 02:31:14;;;;;;;41.60;20.70;;;;;;;0.75;49.52;99616.11;106158;1274;111070;-75
2022/04/13 02:33:43;;;;;;;37.00;18.70;;;;;;;0.67;50.27;99615.59;106058;1274;97833;-72
2022/04/13 02:36:16;;;;;;;35.60;19.50;;;;;;;0.63;50.40;99612.90;106096;1274;107798;-72
2022/04/13 02:38:44;;;;;;;38.00;19.30;;;;;;;0.61;50.62;99616.79;106059;1274;97739;-73
2022/04/13 02:41:12;;;;;;;36.80;17.50;;;;;;;0.59;51.96;99624.84;106097;1274;97876;-70
2022/04/13 02:43:40;;;;;;;32.60;15.10;;;;;;;0.62;51.54;99619.71;106166;1274;111538;-70
2022/04/13 02:46:08;;;;;;;32.00;16.90;;;;;;;0.64;51.21;99623.52;106053;1273;97624;-72
2022/04/13 02:48:41;;;;;;;31.70;14.30;;;;;;;0.68;50.89;99621.34;106087;1271;107725;-71
2022/04/13 02:51:09;;;;;;;33.60;16.30;;;;;;;0.72;50.60;99625.77;106129;1274;97881;-73
2022/04/13 02:53:36;;;;;;;31.10;14.40;;;;;;;0.76;51.28;99625.33;105972;1274;97865;-73
2022/04/13 02:56:04;;;;;;;33.40;15.90;;;;;;;0.77;52.02;99626.19;105871;1274;110944;-72
2022/04/13 02:58:32;;;;;;;32.00;16.00;;;;;;;0.77;51.82;99627.93;105912;1274;97859;-72
2022/04/13 03:01:03;;;;;;;35.80;17.30;;;;;;;0.78;50.39;99625.98;105910;1274;106711;-74
2022/04/13 03:03:31;;;;;;;31.40;15.00;;;;;;;0.78;51.35;99632.27;105943;1274;97998;-74
2022/04/13 03:05:59;;;;;;;33.60;14.90;;;;;;;0.79;50.58;99634.53;105908;1273;97905;-74
2022/04/13 03:08:27;;;;;;;34.20;16.40;;;;;;;0.81;50.42;99631.85;105892;1273;111383;-72
2022/04/13 03:10:55;;;;;;;33.80;15.70;;;;;;;0.83;50.14;99630.92;106045;1274;97593;-73
2022/04/13 03:13:24;;;;;;;34.10;16.80;;;;;;;0.84;50.07;99632.13;106057;1274;107669;-72
2022/04/13 03:15:52;;;;;;;32.50;16.30;;;;;;;0.84;50.17;99639.11;106068;1274;97956;-72
2022/04/13 03:18:20;;;;;;;35.00;17.80;;;;;;;0.83;50.50;99637.02;106087;1274;97995;-72
2022/04/13 03:20:48;;;;;;;34.90;16.60;;;;;;;0.78;50.54;99633.48;106084;1274;111363;-69
2022/04/13 03:23:16;;;;;;;33.30;16.30;;;;;;;0.72;50.43;99632.23;106074;1274;97826;-73
2022/04/13 03:25:44;;;;;;;37.60;16.10;;;;;;;0.64;50.69;99633.28;106105;1273;108340;-74
2022/04/13 03:28:12;;;;;;;34.40;15.50;;;;;;;0.59;50.55;99633.05;106133;1274;96596;-74
2022/04/13 03:30:39;;;;;;;34.20;16.20;;;;;;;0.56;50.42;99634.70;106114;1273;97906;-72
2022/04/13 03:33:07;;;;;;;29.70;14.50;;;;;;;0.54;50.73;99637.00;106073;1274;111488;-72
2022/04/13 03:35:35;;;;;;;31.30;15.90;;;;;;;0.52;50.66;99636.88;105943;1274;96034;-73
2022/04/13 03:38:03;;;;;;;40.40;18.00;;;;;;;0.52;50.64;99641.06;106048;1274;107691;-74
2022/04/13 03:40:31;;;;;;;35.90;18.40;;;;;;;0.52;50.61;99644.02;105839;1274;261960;-74
2022/04/13 03:42:59;;;;;;;38.10;17.90;;;;;;;0.51;50.74;99642.48;106024;1274;97918;-73
2022/04/13 03:45:28;;;;;;;34.50;16.60;;;;;;;0.48;50.93;99641.33;106000;1274;112329;-73
2022/04/13 03:47:55;;;;;;;35.70;17.80;;;;;;;0.44;50.98;99643.31;105956;1274;97920;-73
2022/04/13 03:50:23;;;;;;;37.90;18.10;;;;;;;0.38;51.37;99644.15;106099;1272;107506;-74
2022/04/13 03:52:51;;;;;;;40.40;19.20;;;;;;;0.34;51.75;99648.08;106156;1273;97951;-72
2022/04/13 03:55:22;;;;;;;37.60;19.30;;;;;;;0.28;51.79;99646.80;106170;1274;97867;-72
2022/04/13 03:57:51;;;;;;;35.80;18.90;;;;;;;0.25;51.73;99649.32;106087;1273;111414;-73
2022/04/13 04:00:19;;;;;;;44.30;19.60;;;;;;;0.21;52.02;99657.41;106195;1273;97889;-72
2022/04/13 04:02:47;;;;;;;37.30;17.90;;;;;;;0.17;52.29;99660.66;106066;1274;107813;-72
2022/04/13 04:05:15;;;;;;;36.80;18.10;;;;;;;0.14;51.90;99666.63;105928;1274;97969;-70
2022/04/13 04:07:43;;;;;;;39.10;19.40;;;;;;;0.15;52.20;99664.35;106095;1273;98049;-75
2022/04/13 04:10:12;;;;;;;37.20;19.10;;;;;;;0.15;52.07;99665.40;105901;1274;111383;-73
2022/04/13 04:12:42;;;;;;;40.20;19.50;;;;;;;0.12;52.15;99669.29;106021;1274;97801;-73
2022/04/13 04:15:11;;;;;;;37.10;20.60;;;;;;;0.11;51.93;99671.58;106008;1274;107733;-71
2022/04/13 04:17:39;;;;;;;37.60;18.00;;;;;;;0.12;52.07;99670.67;106018;1274;96605;-74
2022/04/13 04:20:09;;;;;;;36.50;18.30;;;;;;;0.15;52.09;99667.31;106020;1274;97944;-73
2022/04/13 04:22:38;;;;;;;38.30;19.80;;;;;;;0.18;52.09;99669.70;106031;1274;111087;-74
2022/04/13 04:25:08;;;;;;;34.60;18.70;;;;;;;0.19;52.36;99667.75;105963;1274;97909;-73
2022/04/13 04:27:36;;;;;;;38.50;18.80;;;;;;;0.21;52.28;99673.30;106068;1274;107853;-74
2022/04/13 04:30:05;;;;;;;36.10;19.50;;;;;;;0.22;52.35;99677.98;106013;1274;96973;-74
2022/04/13 04:32:33;;;;;;;38.70;20.00;;;;;;;0.24;52.31;99681.42;106072;1274;97893;-74
2022/04/13 04:35:01;;;;;;;40.30;19.60;;;;;;;0.24;52.50;99685.60;106004;1274;109893;-73
2022/04/13 04:37:29;;;;;;;36.00;18.00;;;;;;;0.26;52.45;99689.08;105966;1274;96132;-72
2022/04/13 04:39:57;;;;;;;37.50;19.70;;;;;;;0.30;52.41;99686.88;106037;1273;107685;-73
2022/04/13 04:42:27;;;;;;;37.70;18.00;;;;;;;0.34;52.30;99691.52;105977;1272;98687;-71
2022/04/13 04:44:58;;;;;;;41.80;19.90;;;;;;;0.37;52.46;99694.95;106023;1274;97976;-75
2022/04/13 04:47:26;;;;;;;38.60;19.10;;;;;;;0.39;52.46;99694.21;106095;1274;111332;-73
2022/04/13 04:49:54;;;;;;;38.90;18.80;;;;;;;0.41;52.64;99697.83;105996;1274;96685;-73
2022/04/13 04:52:23;;;;;;;40.10;19.90;;;;;;;0.42;53.18;99699.54;106072;1274;107923;-77
2022/04/13 04:54:50;;;;;;;40.30;18.90;;;;;;;0.43;52.84;99701.26;106071;1274;97879;-73
2022/04/13 04:57:18;;;;;;;36.90;19.20;;;;;;;0.48;52.84;99709.55;106054;1274;97886;-73
2022/04/13 04:59:46;;;;;;;38.70;19.80;;;;;;;0.53;52.99;99714.87;106113;1274;111433;-74
2022/04/13 05:02:14;;;;;;;36.20;20.30;;;;;;;0.58;53.03;99717.02;106174;1274;97986;-71
2022/04/13 05:04:42;;;;;;;41.50;20.80;;;;;;;0.65;53.07;99715.31;106138;1272;107946;-73
2022/04/13 05:07:10;;;;;;;36.60;19.50;;;;;;;0.72;53.08;99718.30;106168;1274;97933;-74
2022/04/13 05:09:38;;;;;;;34.10;18.90;;;;;;;0.79;52.84;99718.33;105931;1274;97866;-73
2022/04/13 05:12:07;;;;;;;38.00;18.50;;;;;;;0.85;53.00;99721.15;105827;1273;111379;-72
2022/04/13 05:14:35;;;;;;;40.10;19.90;;;;;;;0.92;53.11;99721.00;105898;1274;97728;-74
2022/04/13 05:17:03;;;;;;;39.60;19.60;;;;;;;0.97;53.28;99727.86;105940;1274;107800;-73
2022/04/13 05:19:34;;;;;;;38.40;20.90;;;;;;;1.03;53.84;99730.86;105860;1273;97823;-72
2022/04/13 05:22:02;;;;;;;41.00;21.70;;;;;;;1.09;54.44;99734.06;105965;1274;98672;-71
2022/04/13 05:24:30;;;;;;;38.50;21.40;;;;;;;1.13;54.46;99733.64;105984;1274;111551;-71
2022/04/13 05:26:58;;;;;;;41.70;21.50;;;;;;;1.17;54.46;99734.92;106022;1272;99219;-74
2022/04/13 05:29:26;;;;;;;39.20;21.00;;;;;;;1.22;54.32;99739.70;106017;1274;107759;-73
2022/04/13 05:31:54;;;;;;;41.20;20.60;;;;;;;1.28;54.37;99739.38;105930;1274;99193;-75
2022/04/13 05:34:21;;;;;;;42.30;22.70;;;;;;;1.34;54.38;99737.33;105935;1274;99138;-74
2022/04/13 05:36:49;;;;;;;38.50;21.60;;;;;;;1.41;54.29;99738.04;105940;1274;112735;-73
2022/04/13 05:39:17;;;;;;;38.50;21.40;;;;;;;1.47;54.16;99737.87;105933;1274;97411;-73
2022/04/13 05:41:45;;;;;;;38.80;20.70;;;;;;;1.56;54.24;99740.30;105652;1274;107537;-74
2022/04/13 05:44:14;;;;;;;38.80;21.00;;;;;;;1.64;54.27;99741.66;105856;1274;99214;-73
2022/04/13 05:46:42;;;;;;;42.30;20.60;;;;;;;1.72;54.23;99738.31;105965;1274;99246;-73
2022/04/13 05:49:10;;;;;;;42.40;21.30;;;;;;;1.80;54.12;99734.62;105935;1274;112745;-71
2022/04/13 05:51:38;;;;;;;38.30;20.50;;;;;;;1.89;54.34;99739.61;105896;1274;99247;-72
2022/04/13 05:54:06;;;;;;;41.00;19.30;;;;;;;1.99;54.32;99740.42;105885;1273;107753;-73
2022/04/13 05:56:34;;;;;;;35.20;18.20;;;;;;;2.09;54.31;99744.00;105899;1274;97412;-70
2022/04/13 05:59:02;;;;;;;34.40;17.40;;;;;;;2.19;54.25;99748.63;105917;1274;99223;-72
2022/04/13 06:01:30;;;;;;;37.00;18.60;;;;;;;2.29;54.63;99748.16;105848;1274;112927;-72
2022/04/13 06:03:58;;;;;;;33.60;16.80;;;;;;;2.41;54.44;99747.50;105950;1273;99239;-74
2022/04/13 06:06:28;;;;;;;32.00;16.70;;;;;;;2.53;54.71;99742.63;105795;1274;107675;-73
2022/04/13 06:08:56;;;;;;;38.60;15.60;;;;;;;2.65;54.80;99741.75;105927;1274;99298;-71
2022/04/13 06:11:26;;;;;;;29.60;14.60;;;;;;;2.75;54.50;99744.79;105992;1274;97342;-72
2022/04/13 06:13:54;;;;;;;30.90;14.50;;;;;;;2.85;54.94;99745.20;105944;1274;112802;-74
2022/04/13 06:16:22;;;;;;;28.30;14.60;;;;;;;2.95;54.46;99748.40;105923;1274;99223;-74
2022/04/13 06:18:50;;;;;;;31.90;16.20;;;;;;;3.06;54.74;99749.27;105924;1273;108416;-71
2022/04/13 06:21:18;;;;;;;38.10;17.40;;;;;;;3.20;54.54;99746.75;106114;1274;99246;-71
2022/04/13 06:23:47;;;;;;;34.00;16.60;;;;;;;3.34;54.54;99743.69;106057;1274;99214;-72
2022/04/13 06:26:17;;;;;;;30.60;14.00;;;;;;;3.47;55.02;99739.21;105881;1273;112881;-71
2022/04/13 06:28:50;;;;;;;32.20;16.60;;;;;;;3.59;54.85;99742.52;105982;1274;99227;-70
2022/04/13 06:31:19;;;;;;;29.20;14.50;;;;;;;3.69;54.83;99742.37;105800;1274;107800;-69
2022/04/13 06:33:48;;;;;;;42.10;16.80;;;;;;;3.80;54.79;99734.27;105935;1273;97344;-70
2022/04/13 06:36:17;;;;;;;29.50;14.10;;;;;;;3.97;55.24;99731.42;105900;1274;99166;-70
2022/04/13 06:38:47;;;;;;;32.60;14.70;;;;;;;4.11;54.82;99726.39;105903;1274;112752;-70
2022/04/13 06:41:15;;;;;;;28.60;12.50;;;;;;;4.22;55.05;99728.98;106055;1274;99243;-73
2022/04/13 06:43:42;;;;;;;31.30;13.60;;;;;;;4.33;55.02;99727.52;106062;1274;107744;-72
2022/04/13 06:46:10;;;;;;;31.30;14.10;;;;;;;4.45;55.03;99734.48;106103;1274;99415;-72
2022/04/13 06:48:38;;;;;;;26.30;11.80;;;;;;;4.61;55.22;99737.57;106143;1274;99224;-71
2022/04/13 06:51:07;;;;;;;22.10;9.90;;;;;;;4.78;55.39;99735.33;106052;1274;112691;-69
2022/04/13 06:53:35;;;;;;;22.20;10.10;;;;;;;4.94;55.31;99731.94;106056;1274;99215;-71
2022/04/13 06:56:03;;;;;;;22.60;9.00;;;;;;;5.06;55.04;99729.71;106094;1274;105887;-67
2022/04/13 06:58:30;;;;;;;22.00;8.70;;;;;;;5.17;55.02;99726.10;106124;1274;99324;-70
2022/04/13 07:00:58;;;;;;;22.70;8.20;;;;;;;5.29;55.20;99719.84;106193;1274;97685;-71
2022/04/13 07:03:26;;;;;;;23.30;8.80;;;;;;;5.43;55.09;99720.87;106081;1274;111723;-69
2022/04/13 07:05:56;;;;;;;20.60;7.90;;;;;;;5.59;54.95;99728.66;106005;1274;99188;-69
2022/04/13 07:08:24;;;;;;;21.60;8.80;;;;;;;5.71;55.03;99730.09;106109;1274;108390;-71
2022/04/13 07:10:55;;;;;;;19.60;8.10;;;;;;;5.84;54.89;99725.66;105969;1274;96618;-70
2022/04/13 07:13:23;;;;;;;20.50;8.50;;;;;;;5.96;54.92;99735.02;106155;1274;99365;-68
2022/04/13 07:15:52;;;;;;;17.70;7.40;;;;;;;6.08;54.86;99738.59;106068;1274;112932;-71
2022/04/13 07:18:20;;;;;;;18.10;7.40;;;;;;;6.22;54.89;99740.81;106153;1274;98068;-69
2022/04/13 07:20:48;;;;;;;19.80;8.30;;;;;;;6.34;54.83;99742.54;106124;1274;107469;-71
2022/04/13 07:23:16;;;;;;;19.10;7.80;;;;;;;6.47;54.75;99742.52;106100;1274;99245;-71
2022/04/13 07:25:44;;;;;;;18.60;6.60;;;;;;;6.72;55.07;99739.80;106055;1274;96645;-70
2022/04/13 07:28:13;;;;;;;16.00;6.70;;;;;;;7.28;54.79;99735.98;106109;1274;112801;-69
2022/04/13 07:30:42;;;;;;;18.50;6.70;;;;;;;8.85;54.72;99728.05;106107;1274;99276;-71
2022/04/13 07:33:10;;;;;;;17.70;6.10;;;;;;;11.44;54.92;99725.89;106036;1274;108372;-71
2022/04/13 07:35:38;;;;;;;16.50;5.90;;;;;;;13.68;54.69;99721.05;106017;1274;99306;-72
2022/04/13 07:38:06;;;;;;;18.70;6.20;;;;;;;15.67;54.69;99716.14;106259;1274;97630;-70
2022/04/13 07:40:35;;;;;;;16.10;5.70;;;;;;;17.06;51.85;99711.29;106056;1274;112682;-72
2022/04/13 07:43:03;;;;;;;14.70;5.10;;;;;;;17.71;51.53;99712.23;106104;1274;97243;-71
2022/04/13 07:45:31;;;;;;;12.50;4.60;;;;;;;18.83;52.48;99714.89;106050;1274;106923;-70
2022/04/13 07:47:59;;;;;;;14.30;5.20;;;;;;;19.83;51.23;99719.52;106085;1274;99262;-70
2022/04/13 07:50:27;;;;;;;12.80;4.90;;;;;;;20.38;49.25;99717.29;106056;1274;96615;-72
2022/04/13 07:53:00;;;;;;;14.10;5.10;;;;;;;20.84;49.43;99720.10;106068;1274;112840;-72
2022/04/13 07:55:29;;;;;;;14.50;5.00;;;;;;;22.01;50.48;99721.21;106220;1274;99585;-71
2022/04/13 07:57:57;;;;;;;13.80;4.90;;;;;;;22.59;48.48;99722.35;106021;1274;107725;-72
2022/04/13 08:00:25;;;;;;;12.30;4.70;;;;;;;22.64;47.45;99721.56;106159;1274;99203;-72
2022/04/13 08:02:53;;;;;;;8.70;4.40;;;;;;;22.51;42.68;99723.91;106130;1274;99203;-74
2022/04/13 08:05:22;;;;;;;11.40;3.90;;;;;;;21.59;41.27;99726.41;106180;1274;112768;-74
2022/04/13 08:07:50;;;;;;;9.40;4.40;;;;;;;21.63;44.59;99726.02;106130;1274;99082;-72
2022/04/13 08:10:18;;;;;;;12.70;5.00;;;;;;;22.36;42.59;99722.77;106291;1273;107780;-72
2022/04/13 08:12:46;;;;;;;11.30;4.80;;;;;;;22.39;42.78;99725.26;106187;1274;99327;-73
2022/04/13 08:15:15;;;;;;;13.10;5.40;;;;;;;22.48;40.67;99732.58;106183;1274;97695;-71
2022/04/13 08:17:43;;;;;;;12.80;4.90;;;;;;;22.03;38.09;99734.33;106174;1273;112691;-69
2022/04/13 08:20:14;;;;;;;10.90;4.90;;;;;;;21.80;40.62;99732.48;106246;1273;99225;-69
2022/04/13 08:22:43;;;;;;;14.30;5.30;;;;;;;22.39;41.30;99736.34;106093;1274;107782;-70
2022/04/13 08:25:15;;;;;;;12.20;5.70;;;;;;;22.88;40.92;99740.43;105985;1274;99223;-73
2022/04/13 08:27:44;;;;;;;11.70;4.70;;;;;;;23.45;41.83;99733.53;106033;1274;99238;-73
2022/04/13 08:30:13;;;;;;;12.80;5.70;;;;;;;24.11;41.03;99731.84;105879;1274;112931;-73
2022/04/13 08:32:43;;;;;;;14.10;5.40;;;;;;;24.28;39.40;99726.76;105909;1274;99644;-72
2022/04/13 08:35:15;;;;;;;15.00;5.50;;;;;;;24.28;39.20;99725.88;105985;1274;107751;-71
2022/04/13 08:37:43;;;;;;;10.10;5.10;;;;;;;24.67;40.52;99716.76;106094;1274;99237;-70
2022/04/13 08:40:12;;;;;;;10.60;5.00;;;;;;;25.27;40.73;99714.09;105991;1272;99179;-72
2022/04/13 08:42:51;;;;;;;12.10;4.70;;;;;;;25.93;40.66;99710.90;106079;1274;111453;-70
2022/04/13 08:45:25;;;;;;;11.30;4.70;;;;;;;26.31;39.42;99711.14;106162;1274;99316;-69
2022/04/13 08:47:56;;;;;;;13.60;5.00;;;;;;;26.53;39.82;99709.81;106093;1274;107613;-71
2022/04/13 08:50:29;;;;;;;12.60;4.80;;;;;;;26.72;39.02;99715.67;106019;1273;98047;-71
2022/04/13 08:52:58;;;;;;;;;;;;;;;26.58;36.58;99712.39;106093;1273;97691;-70
2022/04/13 08:55:31;;;;;;;10.00;4.10;;;;;;;26.06;35.14;99715.26;106215;1274;112790;-74
2022/04/13 08:58:41;;;;;;;9.60;4.20;;;;;;;25.21;31.36;99711.00;106059;1274;99563;-73
2022/04/13 09:01:20;;;;;;;8.90;3.60;;;;;;;24.08;33.73;99710.19;106049;1274;107792;-74
2022/04/13 09:03:52;;;;;;;10.30;3.90;;;;;;;24.41;35.00;99699.98;106051;1274;99356;-74
2022/04/13 09:06:23;;;;;;;11.60;3.80;;;;;;;24.92;34.86;99701.23;106119;1274;99217;-74
2022/04/13 09:09:00;;;;;;;11.00;4.10;;;;;;;25.42;35.36;99697.08;106146;1273;112798;-74
2022/04/13 09:11:29;;;;;;;9.70;3.70;;;;;;;26.08;35.32;99693.50;106104;1274;99131;-77
2022/04/13 09:13:57;;;;;;;10.20;3.70;;;;;;;26.39;35.02;99691.98;106202;1274;107721;-76
2022/04/13 09:16:27;;;;;;;10.20;4.10;;;;;;;26.49;31.81;99690.98;106010;1274;99098;-75
2022/04/13 09:18:55;;;;;;;7.20;3.50;;;;;;;25.60;30.19;99688.92;105963;1274;99200;-73
2022/04/13 09:21:27;;;;;;;8.80;3.40;;;;;;;25.18;31.72;99689.79;106008;1273;112747;-72
2022/04/13 09:23:59;;;;;;;10.90;3.80;;;;;;;25.31;32.22;99683.27;105923;1274;99664;-74
2022/04/13 09:26:29;;;;;;;7.20;3.60;;;;;;;25.61;32.59;99682.41;105813;1274;107766;-72
2022/04/13 09:28:58;;;;;;;8.50;4.00;;;;;;;26.15;33.22;99682.50;105921;1274;99394;-75
2022/04/13 09:31:26;;;;;;;5.70;3.20;;;;;;;26.79;33.01;99683.68;106002;1274;99236;-71
2022/04/13 09:33:55;;;;;;;9.40;3.50;;;;;;;27.04;32.44;99680.20;105878;1274;112726;-73
2022/04/13 09:36:33;;;;;;;10.60;3.60;;;;;;;27.23;32.39;99675.75;105914;1273;97635;-75
2022/04/13 09:39:02;;;;;;;9.00;3.30;;;;;;;27.55;32.26;99677.09;105993;1274;107554;-71
2022/04/13 09:41:38;;;;;;;19.70;9.40;;;;;;;27.93;32.20;99670.51;106070;1274;99297;-73
2022/04/13 09:44:15;;;;;;;9.90;4.50;;;;;;;27.87;30.34;99666.98;105966;1274;99419;-72
2022/04/13 09:46:44;;;;;;;11.40;5.00;;;;;;;27.42;29.45;99667.01;106020;1273;112746;-71
2022/04/13 09:49:20;;;;;;;10.10;4.30;;;;;;;27.07;30.11;99667.61;105990;1274;97054;-73
2022/04/13 09:51:51;;;;;;;8.90;4.10;;;;;;;26.89;29.99;99669.50;106118;1274;107663;-74
2022/04/13 09:54:25;;;;;;;10.60;3.70;;;;;;;26.85;30.48;99671.75;106205;1274;96693;-74
2022/04/13 09:56:54;;;;;;;8.60;3.60;;;;;;;26.60;29.25;99665.52;106110;1274;97329;-73
2022/04/13 09:59:27;;;;;;;8.20;3.90;;;;;;;25.94;28.31;99665.85;106069;1274;112456;-76
2022/04/13 10:01:56;;;;;;;10.00;3.60;;;;;;;25.21;28.14;99665.56;106066;1274;99295;-74
2022/04/13 10:04:30;;;;;;;7.20;3.20;;;;;;;24.44;28.25;99661.77;106030;1274;108468;-73
2022/04/13 10:07:18;;;;;;;10.20;3.70;;;;;;;23.99;28.56;99662.21;106094;1274;98127;-73
2022/04/13 10:09:46;;;;;;;11.40;4.30;;;;;;;23.63;27.87;99665.92;106181;1274;97678;-74
2022/04/13 10:12:15;;;;;;;11.90;4.10;;;;;;;22.98;27.29;99661.64;106088;1274;112779;-74
2022/04/13 10:14:44;;;;;;;11.10;4.60;;;;;;;22.38;27.25;99663.61;106074;1274;99905;-74
2022/04/13 10:17:16;;;;;;;10.50;4.30;;;;;;;21.97;27.44;99667.27;105969;1274;108190;-74
2022/04/13 10:19:54;;;;;;;10.60;4.10;;;;;;;21.80;27.55;99663.02;106080;1274;99229;-74
2022/04/13 10:22:22;;;;;;;10.10;4.00;;;;;;;21.74;27.55;99661.30;105920;1273;99839;-75
2022/04/13 10:24:50;;;;;;;13.80;4.40;;;;;;;21.71;27.51;99657.29;105996;1274;111785;-72
2022/04/13 10:27:19;;;;;;;16.10;4.80;;;;;;;21.56;27.71;99661.59;105974;1274;99369;-73
2022/04/13 10:29:49;;;;;;;11.70;3.80;;;;;;;21.46;27.50;99659.82;106016;1274;107709;-73
2022/04/13 10:32:24;;;;;;;8.40;4.00;;;;;;;21.32;26.84;99658.11;105799;1274;99229;-73
2022/04/13 10:34:56;;;;;;;9.40;4.10;;;;;;;20.88;26.00;99655.33;106342;1274;96983;-73
2022/04/13 10:37:26;;;;;;;9.80;3.80;;;;;;;20.46;25.85;99656.90;105973;1274;112759;-70
2022/04/13 10:40:00;;;;;;;9.00;3.40;;;;;;;20.10;25.73;99654.49;105988;1274;99571;-71
2022/04/13 10:42:36;;;;;;;7.60;3.40;;;;;;;19.88;26.29;99654.33;106091;1274;107839;-72
2022/04/13 10:45:09;;;;;;;10.70;4.20;;;;;;;19.95;26.54;99654.40;106030;1274;99096;-74
2022/04/13 10:48:12;;;;;;;9.10;3.70;;;;;;;20.00;26.55;99651.86;106097;1274;98863;-76
2022/04/13 10:50:45;;;;;;;15.90;4.10;;;;;;;20.05;26.54;99655.73;105968;1274;112812;-73
2022/04/13 10:53:23;;;;;;;10.40;3.90;;;;;;;20.03;26.66;99645.44;106146;1274;99096;-75
2022/04/13 10:56:01;;;;;;;13.60;3.90;;;;;;;20.02;26.76;99641.21;105977;1274;107730;-72
2022/04/13 10:59:01;;;;;;;10.30;4.00;;;;;;;20.05;26.78;99634.64;106078;1274;99223;-74
2022/04/13 11:01:45;;;;;;;12.40;4.30;;;;;;;20.04;26.79;99629.80;105737;1274;99188;-73
2022/04/13 11:04:16;;;;;;;10.50;3.90;;;;;;;20.04;26.75;99627.00;105695;1274;112844;-72
2022/04/13 11:06:46;;;;;;;9.50;4.00;;;;;;;20.01;26.70;99629.78;105486;1274;99366;-72
2022/04/13 11:09:26;;;;;;;12.30;4.40;;;;;;;19.94;26.64;99630.89;105661;1274;108272;-72
2022/04/13 11:11:56;;;;;;;10.80;4.10;;;;;;;19.85;27.03;99626.36;105672;1274;99306;-72
2022/04/13 11:14:25;;;;;;;11.80;4.10;;;;;;;19.86;27.02;99628.44;105915;1273;99216;-72
2022/04/13 11:17:06;;;;;;;11.80;3.90;;;;;;;19.85;26.77;99622.09;105706;1274;112840;-69
2022/04/13 11:19:34;;;;;;;13.00;3.50;;;;;;;19.63;26.69;99621.30;105716;1274;99409;-69
2022/04/13 11:22:02;;;;;;;10.10;4.10;;;;;;;19.48;26.69;99620.48;105590;1274;107564;-71
2022/04/13 11:24:45;;;;;;;12.40;4.50;;;;;;;19.34;26.75;99618.40;105677;1274;99332;-71
2022/04/13 11:27:15;;;;;;;10.50;3.80;;;;;;;19.28;26.84;99615.98;105744;1274;99373;-72